Time;durP1;ratioP1;P1;durP2;ratioP2;P2;SDS_P1;SDS_P2;PMS_P1;PMS_P2;Temp;Humidity;BMP_temperature;BMP_pressure;BME280_temperature;BME280_humidity;BME280_pressure;Samples;Min_cycle;Max_cycle;Signal;HPM_P1;HPM_P2
2023/07/11 00:00:27;;;;;;;7.93;3.10;;;;;;;;;;5035495;28;20194;-67
2023/07/11 00:02:53;;;;;;;8.40;2.83;;;;;;;;;;5036132;28;20176;-67
2023/07/11 00:05:20;;;;;;;9.57;3.53;;;;;;;;;;5036042;28;20664;-67
2023/07/11 00:07:46;;;;;;;8.23;3.10;;;;;;;;;;5018285;28;20219;-66
2023/07/11 00:10:14;;;;;;;5.33;2.70;;;;;;;;;;5035957;28;20179;-67
2023/07/11 00:12:40;;;;;;;9.60;3.00;;;;;;;;;;5035204;28;20241;-67
2023/07/11 00:15:09;;;;;;;6.33;2.83;;;;;;;;;;5035122;28;20175;-67
2023/07/11 00:17:35;;;;;;;7.53;3.20;;;;;;;;;;5035461;28;20180;-67
2023/07/11 00:20:01;;;;;;;4.13;2.90;;;;;;;;;;5034844;28;20656;-67
2023/07/11 00:22:28;;;;;;;7.33;3.27;;;;;;;;;;5017270;28;20193;-67
2023/07/11 00:24:55;;;;;;;7.97;3.27;;;;;;;;;;5035182;28;20171;-67
2023/07/11 00:27:23;;;;;;;7.83;3.67;;;;;;;;;;5034546;28;20206;-67
2023/07/11 00:29:49;;;;;;;6.63;3.20;;;;;;;;;;5034396;28;20199;-67
2023/07/11 00:32:15;;;;;;;6.57;3.23;;;;;;;;;;5034911;28;20228;-67
2023/07/11 00:34:41;;;;;;;6.07;3.00;;;;;;;;;;5034763;28;20182;-67
2023/07/11 00:37:07;;;;;;;9.47;3.20;;;;;;;;;;5034417;28;20175;-67
2023/07/11 00:39:34;;;;;;;6.70;3.20;;;;;;;;;;5035287;28;20563;-67
2023/07/11 00:42:01;;;;;;;4.37;2.77;;;;;;;;;;5035077;28;20175;-67
2023/07/11 00:44:27;;;;;;;4.37;3.10;;;;;;;;;;5035141;28;20185;-66
2023/07/11 00:46:53;;;;;;;5.57;2.90;;;;;;;;;;5035165;28;20175;-66
2023/07/11 00:49:21;;;;;;;6.60;3.30;;;;;;;;;;5035181;28;20280;-67
2023/07/11 00:51:56;;;;;;;8.00;2.97;;;;;;;;;;5017305;28;20752;-67
2023/07/11 00:54:24;;;;;;;7.33;2.90;;;;;;;;;;5034607;28;20172;-67
2023/07/11 00:56:49;;;;;;;10.47;3.17;;;;;;;;;;5034074;28;20175;-67
2023/07/11 00:59:17;;;;;;;6.03;3.00;;;;;;;;;;5034063;28;20195;-67
2023/07/11 01:01:46;;;;;;;9.17;3.33;;;;;;;;;;5034300;28;20182;-67
2023/07/11 01:04:13;;;;;;;8.37;3.73;;;;;;;;;;5034219;28;20219;-67
2023/07/11 01:06:39;;;;;;;9.07;3.70;;;;;;;;;;5033891;28;20199;-66
2023/07/11 01:09:05;;;;;;;5.60;3.47;;;;;;;;;;5033752;28;20360;-67
2023/07/11 01:11:32;;;;;;;6.53;3.50;;;;;;;;;;5016456;28;20183;-67
2023/07/11 01:13:58;;;;;;;9.17;3.07;;;;;;;;;;5033959;28;20649;-67
2023/07/11 01:16:24;;;;;;;6.33;3.00;;;;;;;;;;5033646;28;20182;-67
2023/07/11 01:18:50;;;;;;;7.47;3.47;;;;;;;;;;5033602;28;20684;-67
2023/07/11 01:21:21;;;;;;;8.40;3.13;;;;;;;;;;5033561;28;20537;-67
2023/07/11 01:23:47;;;;;;;6.73;3.00;;;;;;;;;;5033497;28;20185;-68
2023/07/11 01:26:13;;;;;;;5.50;2.90;;;;;;;;;;5015790;28;20179;-67
2023/07/11 01:28:40;;;;;;;7.90;2.90;;;;;;;;;;5033380;28;20210;-67
2023/07/11 01:31:07;;;;;;;6.30;3.23;;;;;;;;;;5033540;28;20197;-67
2023/07/11 01:33:33;;;;;;;5.50;2.90;;;;;;;;;;5015607;28;20229;-67
2023/07/11 01:36:00;;;;;;;7.10;3.10;;;;;;;;;;5033599;28;20178;-66
2023/07/11 01:38:26;;;;;;;7.07;2.90;;;;;;;;;;5033439;28;20207;-66
2023/07/11 01:40:53;;;;;;;4.80;3.00;;;;;;;;;;5033767;28;20550;-66
2023/07/11 01:43:19;;;;;;;5.00;3.00;;;;;;;;;;5033192;28;20183;-66
2023/07/11 01:45:46;;;;;;;5.77;2.80;;;;;;;;;;5033102;28;20183;-66
2023/07/11 01:48:12;;;;;;;6.43;2.73;;;;;;;;;;5032979;28;20668;-67
2023/07/11 01:50:38;;;;;;;4.17;2.70;;;;;;;;;;5033051;28;20201;-68
2023/07/11 01:53:04;;;;;;;7.53;2.90;;;;;;;;;;5015612;28;20653;-66
2023/07/11 01:55:30;;;;;;;6.97;3.00;;;;;;;;;;5032992;28;20214;-67
2023/07/11 01:57:55;;;;;;;10.27;3.17;;;;;;;;;;5033209;28;20203;-66
2023/07/11 02:00:21;;;;;;;6.73;3.27;;;;;;;;;;5032982;28;20207;-66
2023/07/11 02:02:47;;;;;;;8.53;3.30;;;;;;;;;;5033039;28;20175;-66
2023/07/11 02:05:17;;;;;;;9.17;3.47;;;;;;;;;;5032955;28;20180;-66
2023/07/11 02:07:43;;;;;;;6.97;3.20;;;;;;;;;;5015732;28;20253;-66
2023/07/11 02:10:09;;;;;;;8.07;3.27;;;;;;;;;;5015798;28;20685;-66
2023/07/11 02:12:35;;;;;;;6.80;3.37;;;;;;;;;;5033375;28;20258;-68
2023/07/11 02:15:01;;;;;;;7.17;3.33;;;;;;;;;;5033049;28;20176;-67
2023/07/11 02:17:27;;;;;;;7.53;3.23;;;;;;;;;;5032994;28;20186;-66
2023/07/11 02:19:53;;;;;;;6.30;3.43;;;;;;;;;;5015168;28;20203;-67
2023/07/11 02:22:19;;;;;;;10.33;2.97;;;;;;;;;;5032855;28;20183;-66
2023/07/11 02:24:45;;;;;;;8.10;3.37;;;;;;;;;;5033045;28;20228;-67
2023/07/11 02:27:11;;;;;;;5.00;3.20;;;;;;;;;;5015112;28;20186;-67
2023/07/11 02:29:37;;;;;;;8.13;3.30;;;;;;;;;;5032857;28;20214;-67
2023/07/11 02:32:03;;;;;;;4.17;3.10;;;;;;;;;;5032900;28;20178;-67
2023/07/11 02:34:29;;;;;;;5.27;2.97;;;;;;;;;;5032503;28;20171;-67
2023/07/11 02:36:55;;;;;;;4.80;2.93;;;;;;;;;;5032608;28;20555;-67
2023/07/11 02:39:21;;;;;;;5.20;2.93;;;;;;;;;;5014913;28;20203;-67
2023/07/11 02:41:47;;;;;;;10.17;3.23;;;;;;;;;;5032640;28;20190;-67
2023/07/11 02:44:13;;;;;;;11.87;2.50;;;;;;;;;;5032652;28;20179;-66
2023/07/11 02:46:39;;;;;;;6.73;3.67;;;;;;;;;;5014973;28;20206;-67
2023/07/11 02:49:08;;;;;;;11.57;3.17;;;;;;;;;;5032406;28;20637;-67
2023/07/11 02:51:35;;;;;;;4.23;3.13;;;;;;;;;;5032547;28;20167;-67
2023/07/11 02:54:01;;;;;;;6.23;2.90;;;;;;;;;;5032939;28;20179;-67
2023/07/11 02:56:27;;;;;;;6.47;3.03;;;;;;;;;;5033060;28;20181;-66
2023/07/11 02:58:53;;;;;;;6.33;3.53;;;;;;;;;;5033216;28;20626;-67
2023/07/11 03:01:19;;;;;;;8.03;3.43;;;;;;;;;;5033959;28;20225;-67
2023/07/11 03:03:45;;;;;;;6.60;3.10;;;;;;;;;;5032606;28;20183;-67
2023/07/11 03:06:11;;;;;;;8.33;3.10;;;;;;;;;;5032669;28;20179;-68
2023/07/11 03:08:37;;;;;;;6.23;3.23;;;;;;;;;;5032350;28;20207;-67
2023/07/11 03:11:03;;;;;;;8.53;3.40;;;;;;;;;;5032494;28;20211;-67
2023/07/11 03:13:29;;;;;;;5.07;2.97;;;;;;;;;;5032692;28;20194;-67
2023/07/11 03:15:55;;;;;;;3.20;2.77;;;;;;;;;;5014583;28;20183;-67
2023/07/11 03:18:21;;;;;;;6.73;3.13;;;;;;;;;;5035853;28;20274;-67
2023/07/11 03:20:47;;;;;;;5.33;3.23;;;;;;;;;;5035790;28;20637;-67
2023/07/11 03:23:14;;;;;;;7.93;2.83;;;;;;;;;;5029388;23;20705;-64
2023/07/11 03:25:40;;;;;;;7.43;3.30;;;;;;;;;;5015997;28;20593;-64
2023/07/11 03:28:07;;;;;;;5.27;3.20;;;;;;;;;;5015995;28;20268;-64
2023/07/11 03:30:36;;;;;;;7.17;3.67;;;;;;;;;;5016329;28;20180;-64
2023/07/11 03:33:02;;;;;;;6.37;3.47;;;;;;;;;;5015797;28;20648;-64
2023/07/11 03:35:28;;;;;;;8.57;3.17;;;;;;;;;;5015831;28;20211;-64
2023/07/11 03:37:54;;;;;;;3.70;3.00;;;;;;;;;;5015390;28;20194;-64
2023/07/11 03:40:20;;;;;;;5.73;3.23;;;;;;;;;;5015755;28;20176;-64
2023/07/11 03:42:46;;;;;;;6.33;3.03;;;;;;;;;;5016169;28;20649;-64
2023/07/11 03:45:12;;;;;;;5.77;3.30;;;;;;;;;;5014448;28;20554;-64
2023/07/11 03:47:39;;;;;;;12.10;4.50;;;;;;;;;;5014660;28;20204;-64
2023/07/11 03:50:05;;;;;;;12.03;3.60;;;;;;;;;;5015988;28;20290;-64
2023/07/11 03:52:31;;;;;;;6.23;3.50;;;;;;;;;;5015496;28;20195;-65
2023/07/11 03:54:57;;;;;;;13.83;3.57;;;;;;;;;;5015637;28;20182;-64
2023/07/11 03:57:23;;;;;;;6.10;3.80;;;;;;;;;;5015744;28;20263;-65
2023/07/11 03:59:49;;;;;;;8.53;3.53;;;;;;;;;;5015598;28;20180;-64
2023/07/11 04:02:16;;;;;;;7.23;4.10;;;;;;;;;;5018250;28;20206;-64
2023/07/11 04:04:42;;;;;;;5.80;4.13;;;;;;;;;;5019179;28;20175;-64
2023/07/11 04:07:08;;;;;;;7.87;4.17;;;;;;;;;;5015795;28;20266;-64
2023/07/11 04:09:34;;;;;;;11.87;5.17;;;;;;;;;;5015672;28;20257;-64
2023/07/11 04:12:00;;;;;;;6.43;3.70;;;;;;;;;;5015315;28;20203;-64
2023/07/11 04:14:26;;;;;;;5.90;3.40;;;;;;;;;;5013876;28;20180;-64
2023/07/11 04:16:52;;;;;;;7.17;3.63;;;;;;;;;;5015075;28;20262;-64
2023/07/11 04:19:18;;;;;;;7.93;3.77;;;;;;;;;;5015212;28;20183;-64
2023/07/11 04:21:44;;;;;;;6.70;3.13;;;;;;;;;;5015048;28;20188;-64
2023/07/11 04:24:10;;;;;;;5.30;3.10;;;;;;;;;;5013589;28;20665;-64
2023/07/11 04:26:36;;;;;;;8.83;3.33;;;;;;;;;;5014884;28;20646;-64
2023/07/11 04:29:02;;;;;;;6.28;3.58;;;;;;;;;;5011832;28;20791;-64
2023/07/11 04:31:28;;;;;;;6.40;3.13;;;;;;;;;;5014767;28;20176;-64
2023/07/11 04:33:53;;;;;;;4.77;3.30;;;;;;;;;;5013397;28;20204;-64
2023/07/11 04:36:20;;;;;;;4.53;3.03;;;;;;;;;;5015355;28;20179;-64
2023/07/11 04:38:46;;;;;;;7.13;3.37;;;;;;;;;;5013587;28;20270;-64
2023/07/11 04:41:12;;;;;;;8.03;5.00;;;;;;;;;;5014713;28;20226;-64
2023/07/11 04:43:38;;;;;;;15.93;7.30;;;;;;;;;;5014580;28;20200;-65
2023/07/11 04:46:05;;;;;;;19.70;8.97;;;;;;;;;;5013350;28;20188;-64
2023/07/11 04:48:33;;;;;;;10.27;4.53;;;;;;;;;;5013154;28;20280;-65
2023/07/11 04:51:00;;;;;;;12.03;5.83;;;;;;;;;;5014426;28;20207;-64
2023/07/11 04:53:27;;;;;;;16.00;5.03;;;;;;;;;;5014526;28;20292;-64
2023/07/11 04:55:56;;;;;;;19.27;6.03;;;;;;;;;;5014809;28;20267;-64
2023/07/11 04:58:23;;;;;;;7.68;3.95;;;;;;;;;;5013439;28;20397;-64
2023/07/11 05:00:49;;;;;;;8.60;3.37;;;;;;;;;;5014573;28;20176;-66
2023/07/11 05:03:15;;;;;;;10.20;3.00;;;;;;;;;;5017138;28;20200;-66
2023/07/11 05:05:41;;;;;;;5.80;2.97;;;;;;;;;;5019455;28;20179;-66
2023/07/11 05:08:07;;;;;;;6.03;3.40;;;;;;;;;;5019888;28;20176;-65
2023/07/11 05:10:32;;;;;;;;;;;;;;;;;;5016484;28;20029;-65
2023/07/11 05:12:58;;;;;;;5.37;3.07;;;;;;;;;;5011802;28;20479;-65
2023/07/11 05:15:24;;;;;;;7.17;3.07;;;;;;;;;;5013262;28;20180;-65
2023/07/11 05:17:50;;;;;;;5.70;3.10;;;;;;;;;;5014734;28;20175;-65
2023/07/11 05:20:16;;;;;;;6.57;3.10;;;;;;;;;;5014221;28;20551;-65
2023/07/11 05:22:42;;;;;;;4.03;2.63;;;;;;;;;;5014167;28;20597;-66
2023/07/11 05:25:08;;;;;;;8.03;3.20;;;;;;;;;;5013792;28;20247;-65
2023/07/11 05:27:34;;;;;;;6.53;2.93;;;;;;;;;;5013772;28;20190;-66
2023/07/11 05:30:00;;;;;;;8.10;2.80;;;;;;;;;;5013952;28;20208;-65
2023/07/11 05:32:26;;;;;;;4.77;2.90;;;;;;;;;;5014076;28;20277;-65
2023/07/11 05:34:52;;;;;;;9.93;3.20;;;;;;;;;;5013112;28;20175;-65
2023/07/11 05:37:18;;;;;;;9.10;3.40;;;;;;;;;;5014094;28;20230;-65
2023/07/11 05:39:44;;;;;;;6.10;3.20;;;;;;;;;;5013742;28;20183;-65
2023/07/11 05:42:10;;;;;;;8.93;3.10;;;;;;;;;;5014006;28;20282;-65
2023/07/11 05:44:36;;;;;;;6.67;3.30;;;;;;;;;;5014086;28;20540;-66
2023/07/11 05:47:02;;;;;;;11.40;3.50;;;;;;;;;;5012601;28;20554;-66
2023/07/11 05:49:28;;;;;;;6.23;3.43;;;;;;;;;;5013565;28;20573;-66
2023/07/11 05:51:54;;;;;;;8.87;3.70;;;;;;;;;;5013627;28;20263;-65
2023/07/11 05:54:19;;;;;;;11.33;3.80;;;;;;;;;;5013678;28;20180;-66
2023/07/11 05:56:45;;;;;;;6.83;3.87;;;;;;;;;;5012214;28;20676;-66
2023/07/11 05:59:11;;;;;;;7.70;3.97;;;;;;;;;;5013425;28;20180;-65
2023/07/11 06:01:37;;;;;;;11.07;5.13;;;;;;;;;;5012149;28;20241;-66
2023/07/11 06:04:21;;;;;;;17.27;9.03;;;;;;;;;;5012068;28;20206;-65
2023/07/11 06:06:49;;;;;;;9.87;5.73;;;;;;;;;;5012128;28;20174;-65
2023/07/11 06:09:16;;;;;;;28.40;12.43;;;;;;;;;;5013183;28;20195;-66
2023/07/11 06:11:43;;;;;;;34.10;14.70;;;;;;;;;;5013196;28;20169;-65
2023/07/11 06:14:09;;;;;;;20.97;10.27;;;;;;;;;;5013778;28;20218;-66
2023/07/11 06:16:35;;;;;;;34.47;17.23;;;;;;;;;;5013599;28;20246;-65
2023/07/11 06:19:03;;;;;;;25.03;13.27;;;;;;;;;;5013483;28;20548;-65
2023/07/11 06:21:29;;;;;;;16.60;9.60;;;;;;;;;;5013037;28;20253;-65
2023/07/11 06:23:55;;;;;;;18.70;10.63;;;;;;;;;;5013391;28;20697;-65
2023/07/11 06:26:21;;;;;;;15.77;9.53;;;;;;;;;;5015636;28;20698;-65
2023/07/11 06:28:47;;;;;;;25.00;13.20;;;;;;;;;;5013321;28;20676;-65
2023/07/11 06:31:13;;;;;;;20.03;10.07;;;;;;;;;;5013706;28;20176;-65
2023/07/11 06:33:39;;;;;;;23.57;10.43;;;;;;;;;;5013022;28;20195;-65
2023/07/11 06:36:06;;;;;;;16.77;9.47;;;;;;;;;;5011792;28;20172;-65
2023/07/11 06:38:32;;;;;;;26.67;16.50;;;;;;;;;;5013295;28;20176;-65
2023/07/11 06:40:58;;;;;;;18.23;12.03;;;;;;;;;;5013305;28;20184;-66
2023/07/11 06:43:25;;;;;;;20.37;9.00;;;;;;;;;;5013072;28;20231;-65
2023/07/11 06:45:56;;;;;;;23.87;13.67;;;;;;;;;;5013576;28;20187;-66
2023/07/11 06:48:23;;;;;;;15.83;10.13;;;;;;;;;;5013157;28;20209;-66
2023/07/11 06:50:56;;;;;;;15.90;8.33;;;;;;;;;;5014430;28;20692;-66
2023/07/11 06:53:25;;;;;;;18.97;8.50;;;;;;;;;;5017010;28;20242;-66
2023/07/11 06:55:52;;;;;;;18.27;8.10;;;;;;;;;;5017210;28;20208;-66
2023/07/11 06:58:18;;;;;;;29.87;10.83;;;;;;;;;;5018311;28;20593;-65
2023/07/11 07:00:45;;;;;;;27.93;11.17;;;;;;;;;;5015973;28;20175;-66
2023/07/11 07:03:12;;;;;;;17.20;8.70;;;;;;;;;;5015963;28;20211;-65
2023/07/11 07:05:37;;;;;;;17.77;8.20;;;;;;;;;;5017180;28;20176;-65
2023/07/11 07:08:04;;;;;;;21.20;8.20;;;;;;;;;;5016197;28;20179;-66
2023/07/11 07:10:30;;;;;;;18.13;8.70;;;;;;;;;;5017975;28;20183;-65
2023/07/11 07:12:56;;;;;;;19.20;7.73;;;;;;;;;;5015913;28;20207;-65
2023/07/11 07:15:21;;;;;;;16.07;8.33;;;;;;;;;;5017679;28;20738;-65
2023/07/11 07:17:47;;;;;;;12.90;7.90;;;;;;;;;;5017047;28;20556;-65
2023/07/11 07:20:13;;;;;;;25.87;8.50;;;;;;;;;;5017099;28;20243;-65
2023/07/11 07:22:39;;;;;;;20.10;7.20;;;;;;;;;;5022775;28;20277;-65
2023/07/11 07:25:05;;;;;;;14.07;6.40;;;;;;;;;;5020643;28;20184;-65
2023/07/11 07:27:31;;;;;;;12.23;5.90;;;;;;;;;;5016225;28;20184;-65
2023/07/11 07:29:57;;;;;;;13.03;5.10;;;;;;;;;;5016784;28;20265;-66
2023/07/11 07:32:23;;;;;;;17.57;4.90;;;;;;;;;;5016708;28;20196;-66
2023/07/11 07:34:49;;;;;;;8.70;4.13;;;;;;;;;;5016975;28;20176;-66
2023/07/11 07:37:15;;;;;;;9.00;3.80;;;;;;;;;;5016741;28;20183;-65
2023/07/11 07:39:42;;;;;;;8.27;4.10;;;;;;;;;;5016599;28;20176;-66
2023/07/11 07:42:08;;;;;;;6.83;4.40;;;;;;;;;;5015066;28;20526;-65
2023/07/11 07:44:34;;;;;;;18.60;5.67;;;;;;;;;;5015089;28;20684;-66
2023/07/11 07:47:00;;;;;;;8.67;4.07;;;;;;;;;;5015355;28;20194;-66
2023/07/11 07:49:26;;;;;;;7.17;3.77;;;;;;;;;;5016440;28;20200;-65
2023/07/11 07:51:53;;;;;;;8.93;4.20;;;;;;;;;;5016352;28;20230;-66
2023/07/11 07:54:19;;;;;;;6.80;4.07;;;;;;;;;;5015310;28;20271;-65
2023/07/11 07:56:45;;;;;;;9.90;3.67;;;;;;;;;;5016433;28;20256;-66
2023/07/11 07:59:11;;;;;;;8.10;3.33;;;;;;;;;;5016284;28;20237;-67
2023/07/11 08:01:37;;;;;;;6.83;3.43;;;;;;;;;;5015680;28;20180;-66
2023/07/11 08:04:03;;;;;;;6.40;3.70;;;;;;;;;;5017409;28;20200;-65
2023/07/11 08:06:29;;;;;;;6.77;3.63;;;;;;;;;;5016643;28;20267;-66
2023/07/11 08:08:55;;;;;;;11.47;3.93;;;;;;;;;;5017870;28;20208;-66
2023/07/11 08:11:21;;;;;;;9.40;3.50;;;;;;;;;;5018507;28;20180;-65
2023/07/11 08:13:47;;;;;;;7.53;3.80;;;;;;;;;;5017897;28;20199;-66
2023/07/11 08:16:13;;;;;;;8.23;4.30;;;;;;;;;;5015134;28;20190;-66
2023/07/11 08:18:39;;;;;;;10.07;4.17;;;;;;;;;;5015636;28;20187;-66
2023/07/11 08:21:05;;;;;;;10.57;4.10;;;;;;;;;;5014049;28;20184;-67
2023/07/11 08:23:31;;;;;;;8.47;4.07;;;;;;;;;;5015335;28;20542;-65
2023/07/11 08:25:57;;;;;;;10.47;3.70;;;;;;;;;;5014407;28;20180;-66
2023/07/11 08:28:23;;;;;;;7.90;3.60;;;;;;;;;;5014140;28;20200;-65
2023/07/11 08:30:49;;;;;;;10.00;4.03;;;;;;;;;;5015807;28;20630;-65
2023/07/11 08:33:15;;;;;;;6.97;4.03;;;;;;;;;;5015295;28;20192;-65
2023/07/11 08:35:41;;;;;;;6.67;3.53;;;;;;;;;;5015546;28;20266;-67
2023/07/11 08:38:11;;;;;;;8.03;3.90;;;;;;;;;;5015340;28;20220;-65
2023/07/11 08:40:40;;;;;;;7.67;4.23;;;;;;;;;;5013847;28;20180;-65
2023/07/11 08:43:07;;;;;;;11.07;3.63;;;;;;;;;;5015176;28;20274;-65
2023/07/11 08:45:38;;;;;;;12.43;3.57;;;;;;;;;;5013777;28;20195;-65
2023/07/11 08:48:04;;;;;;;11.90;3.93;;;;;;;;;;5015284;28;20165;-65
2023/07/11 08:50:34;;;;;;;8.20;3.73;;;;;;;;;;5014814;28;20192;-66
2023/07/11 08:53:11;;;;;;;9.17;3.67;;;;;;;;;;5014727;28;20195;-66
2023/07/11 08:55:39;;;;;;;8.70;5.00;;;;;;;;;;5013320;28;20255;-66
2023/07/11 08:58:11;;;;;;;13.57;3.80;;;;;;;;;;5014486;28;20259;-66
2023/07/11 09:00:37;;;;;;;9.00;3.73;;;;;;;;;;5014399;28;20172;-66
2023/07/11 09:03:06;;;;;;;7.27;3.50;;;;;;;;;;5014287;28;20196;-66
2023/07/11 09:05:35;;;;;;;7.90;3.40;;;;;;;;;;5014266;28;20190;-66
2023/07/11 09:08:01;;;;;;;6.03;3.50;;;;;;;;;;5013745;28;20184;-66
2023/07/11 09:10:38;;;;;;;7.57;3.17;;;;;;;;;;5014650;28;20212;-66
2023/07/11 09:13:11;;;;;;;5.63;3.00;;;;;;;;;;5014542;28;20673;-65
2023/07/11 09:15:50;;;;;;;7.53;3.70;;;;;;;;;;5013722;28;20211;-66
2023/07/11 09:18:16;;;;;;;9.20;3.10;;;;;;;;;;5013269;28;20187;-65
2023/07/11 09:20:56;;;;;;;6.63;3.13;;;;;;;;;;5014109;28;20179;-66
2023/07/11 09:23:34;;;;;;;8.23;3.23;;;;;;;;;;5014226;28;20212;-67
2023/07/11 09:26:02;;;;;;;8.00;3.20;;;;;;;;;;5013937;28;20211;-67
2023/07/11 09:28:29;;;;;;;9.27;2.90;;;;;;;;;;5012929;28;20561;-67
2023/07/11 09:31:01;;;;;;;8.70;3.27;;;;;;;;;;5015594;28;20172;-66
2023/07/11 09:33:30;;;;;;;4.43;3.23;;;;;;;;;;5014383;28;20282;-66
2023/07/11 09:35:56;;;;;;;6.03;2.83;;;;;;;;;;5013289;28;20179;-66
2023/07/11 09:38:32;;;;;;;5.63;3.10;;;;;;;;;;5013181;28;20191;-66
2023/07/11 09:40:58;;;;;;;;;;;;;;;;;;5015264;28;20036;-66
2023/07/11 09:43:24;;;;;;;;;;;;;;;;;;5014619;28;19905;-66
2023/07/11 09:45:50;;;;;;;;;;;;;;;;;;5014445;28;19955;-66
2023/07/11 09:48:16;;;;;;;;;;;;;;;;;;5014092;28;20323;-67
2023/07/11 09:50:42;;;;;;;;;;;;;;;;;;5012702;28;19948;-66
2023/07/11 09:53:08;;;;;;;;;;;;;;;;;;5013874;28;19905;-66
2023/07/11 09:55:36;;;;;;;;;;;;;;;;;;5013836;28;19912;-66
2023/07/11 09:58:02;;;;;;;8.93;3.22;;;;;;;;;;5013532;28;19968;-66
2023/07/11 10:00:29;;;;;;;8.00;3.40;;;;;;;;;;5013472;28;20179;-66
2023/07/11 10:02:57;;;;;;;4.90;3.13;;;;;;;;;;5013572;28;20192;-66
2023/07/11 10:05:24;;;;;;;4.87;3.27;;;;;;;;;;5013638;28;20175;-66
2023/07/11 10:08:03;;;;;;;6.87;3.20;;;;;;;;;;5013348;28;20179;-66
2023/07/11 10:10:29;;;;;;;8.37;3.20;;;;;;;;;;5013263;28;20214;-65
2023/07/11 10:12:55;;;;;;;4.27;2.87;;;;;;;;;;5013320;28;20188;-66
2023/07/11 10:15:21;;;;;;;;;;;;;;;;;;5013956;28;20408;-66
2023/07/11 10:17:46;;;;;;;;;;;;;;;;;;5014098;28;19905;-66
2023/07/11 10:20:15;;;;;;;6.55;2.70;;;;;;;;;;5013420;28;20603;-66
2023/07/11 10:22:43;;;;;;;6.43;3.20;;;;;;;;;;5011893;28;20215;-66
2023/07/11 10:25:11;;;;;;;5.57;3.23;;;;;;;;;;5013423;28;20230;-66
2023/07/11 10:27:38;;;;;;;5.83;3.13;;;;;;;;;;5017276;28;20234;-66
2023/07/11 10:30:05;;;;;;;4.50;2.80;;;;;;;;;;5016892;28;20210;-66
2023/07/11 10:32:36;;;;;;;11.37;3.03;;;;;;;;;;5017046;28;20636;-67
2023/07/11 10:35:05;;;;;;;7.68;2.95;;;;;;;;;;5016092;28;20831;-66
2023/07/11 10:37:42;;;;;;;8.90;3.33;;;;;;;;;;5016011;28;20427;-66
2023/07/11 10:40:29;;;;;;;6.35;3.30;;;;;;;;;;5016355;28;20464;-66
2023/07/11 10:43:07;;;;;;;9.97;3.20;;;;;;;;;;5015769;28;20426;-66
2023/07/11 10:45:38;;;;;;;10.30;3.38;;;;;;;;;;5015651;28;20380;-66
2023/07/11 10:48:15;;;;;;;8.93;3.08;;;;;;;;;;5014325;28;20393;-66
2023/07/11 10:50:43;;;;;;;9.87;3.10;;;;;;;;;;5014375;28;20397;-65
2023/07/11 10:53:23;;;;;;;9.80;3.28;;;;;;;;;;5015468;28;20403;-66
2023/07/11 10:56:05;;;;;;;6.40;2.95;;;;;;;;;;5058840;23;20433;-66
2023/07/11 10:58:32;;;;;;;7.18;2.97;;;;;;;;;;5055766;28;20385;-66
2023/07/11 11:01:12;;;;;;;5.77;3.20;;;;;;;;;;5056144;28;20400;-68
2023/07/11 11:03:40;;;;;;;5.82;3.10;;;;;;;;;;5038897;28;20396;-67
2023/07/11 11:06:35;;;;;;;7.45;2.90;;;;;;;;;;5055425;28;20384;-67
2023/07/11 11:09:06;;;;;;;6.78;3.00;;;;;;;;;;5055330;28;20397;-66
2023/07/11 11:11:42;;;;;;;9.77;3.03;;;;;;;;;;5055338;28;20886;-66
2023/07/11 11:14:12;;;;;;;3.50;2.80;;;;;;;;;;5055635;28;20442;-66
2023/07/11 11:16:47;;;;;;;6.53;3.10;;;;;;;;;;5037054;28;20386;-66
2023/07/11 11:19:19;;;;;;;4.73;3.10;;;;;;;;;;5037042;28;20389;-68
2023/07/11 11:21:52;;;;;;;5.20;3.20;;;;;;;;;;5055746;28;20374;-66
2023/07/11 11:24:18;;;;;;;7.20;3.30;;;;;;;;;;5037054;28;20477;-66
2023/07/11 11:26:47;;;;;;;5.05;2.92;;;;;;;;;;5054631;28;20928;-66
2023/07/11 11:29:23;;;;;;;5.03;2.85;;;;;;;;;;5037913;28;20634;-67
2023/07/11 11:32:09;;;;;;;5.82;3.03;;;;;;;;;;5036921;28;20381;-66
2023/07/11 11:34:36;;;;;;;7.67;3.03;;;;;;;;;;5024008;28;20848;-66
2023/07/11 11:37:02;;;;;;;6.53;3.17;;;;;;;;;;5035510;28;20393;-67
2023/07/11 11:39:44;;;;;;;8.45;3.10;;;;;;;;;;5054819;28;20439;-66
2023/07/11 11:42:30;;;;;;;8.15;3.38;;;;;;;;;;5036700;28;20409;-67
2023/07/11 11:45:09;;;;;;;4.93;3.10;;;;;;;;;;5036411;28;20382;-66
2023/07/11 11:47:36;;;;;;;5.07;2.97;;;;;;;;;;5054249;28;20377;-66
2023/07/11 11:50:03;;;;;;;7.35;3.17;;;;;;;;;;5036200;28;20416;-66
2023/07/11 11:52:33;;;;;;;4.32;3.10;;;;;;;;;;5036258;28;20390;-67
2023/07/11 11:54:59;;;;;;;5.17;3.50;;;;;;;;;;5054335;28;20366;-66
2023/07/11 11:57:32;;;;;;;6.15;3.17;;;;;;;;;;5054391;28;20460;-66
2023/07/11 11:59:59;;;;;;;7.43;3.20;;;;;;;;;;5054305;28;20708;-66
2023/07/11 12:02:34;;;;;;;5.83;3.50;;;;;;;;;;5036232;28;20385;-66
2023/07/11 12:05:02;;;;;;;9.63;3.47;;;;;;;;;;5053838;28;20381;-66
2023/07/11 12:07:29;;;;;;;5.85;3.45;;;;;;;;;;5035902;28;20396;-66
2023/07/11 12:09:56;;;;;;;6.20;3.10;;;;;;;;;;5036086;28;20397;-66
2023/07/11 12:12:22;;;;;;;9.35;3.60;;;;;;;;;;5036684;28;20459;-67
2023/07/11 12:14:51;;;;;;;9.18;3.50;;;;;;;;;;5036329;28;20867;-66
2023/07/11 12:17:29;;;;;;;5.77;3.00;;;;;;;;;;5036079;28;20417;-66
2023/07/11 12:20:05;;;;;;;5.53;2.90;;;;;;;;;;5054004;28;20417;-66
2023/07/11 12:22:37;;;;;;;11.80;3.35;;;;;;;;;;5053868;28;20409;-66
2023/07/11 12:25:03;;;;;;;6.15;3.00;;;;;;;;;;5053649;28;20472;-66
2023/07/11 12:27:29;;;;;;;6.20;3.40;;;;;;;;;;5035778;28;20416;-66
2023/07/11 12:29:55;;;;;;;7.67;3.10;;;;;;;;;;5053735;28;20397;-66
2023/07/11 12:32:33;;;;;;;6.43;3.15;;;;;;;;;;5035646;28;20465;-66
2023/07/11 12:35:05;;;;;;;9.73;3.05;;;;;;;;;;5053556;28;20870;-66
2023/07/11 12:37:42;;;;;;;12.15;3.38;;;;;;;;;;5053563;28;20392;-66
2023/07/11 12:40:08;;;;;;;6.70;3.08;;;;;;;;;;5035426;28;20382;-66
2023/07/11 12:42:56;;;;;;;6.83;3.00;;;;;;;;;;5053909;28;20389;-67
2023/07/11 12:45:24;;;;;;;6.80;3.25;;;;;;;;;;5035842;28;20385;-67
2023/07/11 12:47:51;;;;;;;4.15;2.70;;;;;;;;;;5053279;28;20389;-68
2023/07/11 12:50:25;;;;;;;6.38;2.90;;;;;;;;;;5054215;28;20516;-67
2023/07/11 12:53:01;;;;;;;6.53;3.22;;;;;;;;;;5053454;28;20366;-67
2023/07/11 12:55:28;;;;;;;5.00;3.10;;;;;;;;;;5053156;28;20385;-67
2023/07/11 12:57:54;;;;;;;6.00;3.00;;;;;;;;;;5053526;28;20930;-68
2023/07/11 13:00:21;;;;;;;6.35;2.85;;;;;;;;;;5039021;28;20179;-66
2023/07/11 13:02:49;;;;;;;7.80;3.00;;;;;;;;;;5053220;28;20389;-67
2023/07/11 13:05:15;;;;;;;4.97;3.20;;;;;;;;;;5052573;28;20377;-66
2023/07/11 13:07:41;;;;;;;6.63;2.80;;;;;;;;;;5052771;28;20373;-66
2023/07/11 13:10:17;;;;;;;4.80;2.83;;;;;;;;;;5035772;28;20900;-66
2023/07/11 13:12:43;;;;;;;3.95;2.92;;;;;;;;;;5052862;28;20848;-66
2023/07/11 13:15:14;;;;;;;5.63;2.80;;;;;;;;;;5052618;28;20385;-66
2023/07/11 13:17:41;;;;;;;4.43;2.67;;;;;;;;;;5034541;28;20823;-66
2023/07/11 13:20:16;;;;;;;5.38;2.80;;;;;;;;;;5052499;28;20392;-66
2023/07/11 13:22:43;;;;;;;5.50;2.58;;;;;;;;;;5034520;28;20393;-66
2023/07/11 13:25:09;;;;;;;;;;;;;;;;;;5035898;28;20044;-66
2023/07/11 13:27:35;;;;;;;;;;;;;;;;;;5035805;28;19904;-66
2023/07/11 13:30:01;;;;;;;4.00;2.90;;;;;;;;;;5052640;28;20406;-67
2023/07/11 13:32:28;;;;;;;5.85;3.00;;;;;;;;;;5053645;28;20166;-66
2023/07/11 13:34:55;;;;;;;4.57;3.00;;;;;;;;;;5053528;28;20193;-66
2023/07/11 13:37:29;;;;;;;3.80;2.55;;;;;;;;;;5053438;28;20313;-67
2023/07/11 13:39:55;;;;;;;5.80;2.72;;;;;;;;;;5053767;28;20216;-67
2023/07/11 13:42:21;;;;;;;;;;;;;;;;;;5054434;28;20124;-67
2023/07/11 13:44:50;;;;;;;5.78;2.85;;;;;;;;;;5054206;28;20261;-68
2023/07/11 13:47:17;;;;;;;3.40;2.70;;;;;;;;;;5036110;28;20164;-68
2023/07/11 13:49:45;;;;;;;5.35;2.80;;;;;;;;;;5056001;28;20210;-68
2023/07/11 13:52:25;;;;;;;4.07;2.97;;;;;;;;;;5035178;28;20644;-68
2023/07/11 13:54:52;;;;;;;6.68;2.97;;;;;;;;;;5053165;28;20213;-68
2023/07/11 13:57:18;;;;;;;6.60;3.08;;;;;;;;;;5053334;28;20174;-68
2023/07/11 13:59:45;;;;;;;3.67;3.15;;;;;;;;;;5052607;28;20250;-68
2023/07/11 14:02:18;;;;;;;3.65;2.85;;;;;;;;;;5052959;28;20171;-68
2023/07/11 14:04:44;;;;;;;3.55;2.70;;;;;;;;;;5035068;28;20193;-66
2023/07/11 14:07:10;;;;;;;4.63;3.08;;;;;;;;;;5052901;28;20210;-66
2023/07/11 14:09:36;;;;;;;5.03;2.90;;;;;;;;;;5054163;28;20247;-67
2023/07/11 14:12:03;;;;;;;7.93;3.00;;;;;;;;;;5035248;28;20171;-68
2023/07/11 14:14:29;;;;;;;5.22;3.38;;;;;;;;;;5052923;28;20170;-67
2023/07/11 14:16:55;;;;;;;6.63;3.20;;;;;;;;;;5052842;28;20214;-67
2023/07/11 14:19:23;;;;;;;6.93;3.38;;;;;;;;;;5052861;28;20276;-67
2023/07/11 14:21:50;;;;;;;5.88;3.25;;;;;;;;;;5052906;28;20183;-67
2023/07/11 14:24:16;;;;;;;3.10;2.70;;;;;;;;;;5034954;28;20248;-67
2023/07/11 14:26:41;;;;;;;4.88;3.05;;;;;;;;;;5052588;28;20668;-68
2023/07/11 14:29:18;;;;;;;7.50;3.35;;;;;;;;;;5052397;28;20202;-67
2023/07/11 14:31:44;;;;;;;6.47;3.15;;;;;;;;;;5052898;28;20713;-67
2023/07/11 14:34:17;;;;;;;3.45;2.92;;;;;;;;;;5034711;28;20178;-67
2023/07/11 14:36:43;;;;;;;7.13;3.10;;;;;;;;;;5053050;28;20199;-67
2023/07/11 14:39:09;;;;;;;7.32;2.92;;;;;;;;;;5052544;28;20189;-67
2023/07/11 14:41:35;;;;;;;3.63;2.78;;;;;;;;;;5052709;28;20183;-67
2023/07/11 14:44:01;;;;;;;4.90;3.30;;;;;;;;;;5053138;28;20213;-67
2023/07/11 14:46:27;;;;;;;3.60;2.70;;;;;;;;;;5034944;28;20217;-67